createdAt,value
2022-08-14T00:01:55.098Z,26.40
2022-08-14T00:04:35.762Z,27.20
2022-08-14T00:07:09.067Z,27.10
2022-08-14T00:09:56.047Z,27.10
2022-08-14T00:12:23.608Z,27.10
2022-08-14T00:14:55.002Z,27.10
2022-08-14T00:17:22.520Z,27.00
2022-08-14T00:19:49.093Z,27.90
2022-08-14T00:22:44.404Z,28.90
2022-08-14T00:25:08.969Z,29.10
2022-08-14T00:27:38.026Z,29.90
2022-08-14T00:30:09.017Z,29.50
2022-08-14T00:32:56.389Z,30.20
2022-08-14T00:35:25.882Z,29.80
2022-08-14T00:38:10.672Z,31.70
2022-08-14T00:40:37.509Z,31.60
2022-08-14T00:43:04.538Z,31.70
2022-08-14T00:45:31.463Z,31.50
2022-08-14T00:47:58.454Z,32.70
2022-08-14T00:50:29.385Z,33.10
2022-08-14T00:52:56.745Z,32.70
2022-08-14T00:55:24.611Z,33.80
2022-08-14T00:58:11.206Z,34.40
2022-08-14T01:00:42.993Z,35.00
2022-08-14T01:03:19.068Z,35.60
2022-08-14T01:05:52.046Z,34.90
2022-08-14T01:08:52.472Z,35.20
2022-08-14T01:11:25.301Z,37.00
2022-08-14T01:14:01.578Z,36.90
2022-08-14T01:16:31.911Z,36.90
2022-08-14T01:19:19.543Z,36.90
2022-08-14T01:21:53.133Z,36.90
2022-08-14T01:24:24.743Z,37.90
2022-08-14T01:26:57.941Z,38.40
2022-08-14T01:29:58.103Z,39.00
2022-08-14T01:32:15.688Z,39.20
2022-08-14T01:35:17.569Z,38.80
2022-08-14T01:37:37.917Z,39.40
2022-08-14T01:40:11.170Z,38.40
2022-08-14T01:42:37.752Z,38.40
2022-08-14T01:45:12.348Z,38.50
2022-08-14T01:47:44.586Z,39.60
2022-08-14T01:50:11.241Z,40.70
2022-08-14T01:53:00.155Z,40.80
2022-08-14T01:55:32.855Z,42.20
2022-08-14T01:58:01.543Z,42.40
2022-08-14T02:00:48.145Z,42.10
2022-08-14T02:03:16.184Z,42.30
2022-08-14T02:05:43.312Z,42.70
2022-08-14T02:08:10.534Z,42.50
2022-08-14T02:10:46.569Z,42.00
2022-08-14T02:13:16.167Z,42.00
2022-08-14T02:15:43.708Z,42.20
2022-08-14T02:18:11.869Z,41.90
2022-08-14T02:20:42.177Z,41.90
2022-08-14T02:23:09.078Z,42.00
2022-08-14T02:25:36.211Z,43.70
2022-08-14T02:28:25.513Z,42.80
2022-08-14T02:30:52.348Z,43.40
2022-08-14T02:33:20.880Z,43.40
2022-08-14T02:35:52.964Z,43.70
2022-08-14T02:38:29.545Z,43.40
2022-08-14T02:40:58.146Z,42.90
2022-08-14T02:43:24.754Z,42.90
2022-08-14T02:46:03.436Z,43.00
2022-08-14T02:49:03.283Z,43.30
2022-08-14T02:51:23.299Z,43.60
2022-08-14T02:53:50.282Z,44.50
2022-08-14T02:56:30.632Z,43.20
2022-08-14T02:59:07.242Z,43.60
2022-08-14T03:01:43.939Z,44.80
2022-08-14T03:04:20.496Z,45.00
2022-08-14T03:07:06.589Z,45.10
2022-08-14T03:09:41.866Z,45.10
2022-08-14T03:12:30.772Z,44.60
2022-08-14T03:15:02.749Z,45.60
2022-08-14T03:17:31.992Z,46.80
2022-08-14T03:20:11.194Z,46.80
2022-08-14T03:22:41.866Z,46.80
2022-08-14T03:25:10.039Z,47.40
2022-08-14T03:27:48.253Z,46.80
2022-08-14T03:30:25.149Z,46.90
2022-08-14T03:33:08.028Z,47.10
2022-08-14T03:35:40.036Z,47.20
2022-08-14T03:39:15.588Z,47.80
2022-08-14T03:41:14.517Z,46.70
2022-08-14T03:43:41.745Z,46.60
2022-08-14T03:46:52.714Z,46.60
2022-08-14T03:48:57.741Z,46.60
2022-08-14T03:51:28.642Z,47.90
2022-08-14T03:53:57.498Z,46.60
2022-08-14T03:56:25.849Z,47.40
2022-08-14T03:58:54.222Z,49.40
2022-08-14T04:01:24.731Z,48.50
2022-08-14T04:04:05.500Z,46.40
2022-08-14T04:06:35.320Z,48.10
2022-08-14T04:09:14.166Z,49.40
2022-08-14T04:11:45.223Z,50.00
2022-08-14T04:14:16.504Z,50.50
2022-08-14T04:16:46.249Z,50.10
2022-08-14T04:19:18.591Z,50.00
2022-08-14T04:22:03.099Z,50.30
2022-08-14T04:24:39.246Z,50.30
2022-08-14T04:27:09.575Z,50.10
2022-08-14T04:29:39.991Z,50.90
2022-08-14T04:32:59.063Z,50.70
2022-08-14T04:34:56.516Z,50.90
2022-08-14T04:37:42.214Z,51.80
2022-08-14T04:40:27.959Z,51.40
2022-08-14T04:43:16.983Z,49.30
2022-08-14T04:45:44.486Z,48.20
2022-08-14T04:48:38.962Z,48.50
2022-08-14T04:51:03.556Z,50.20
2022-08-14T04:53:35.263Z,48.90
2022-08-14T04:56:03.899Z,48.30
2022-08-14T04:58:33.704Z,48.60
2022-08-14T05:01:01.378Z,49.50
2022-08-14T05:03:29.274Z,47.60
2022-08-14T05:05:59.659Z,48.80
2022-08-14T05:08:31.663Z,49.10
2022-08-14T05:11:11.957Z,46.80
2022-08-14T05:14:06.552Z,47.30
2022-08-14T05:16:29.267Z,48.50
2022-08-14T05:19:26.646Z,47.10
2022-08-14T05:21:59.945Z,47.10
2022-08-14T05:24:29.584Z,47.20
2022-08-14T05:26:56.277Z,47.30
2022-08-14T05:29:23.379Z,47.50
2022-08-14T05:31:55.802Z,47.50
2022-08-14T05:34:28.749Z,47.70
2022-08-14T05:36:58.977Z,47.80
2022-08-14T05:39:30.131Z,46.90
2022-08-14T05:41:58.038Z,45.70
2022-08-14T05:44:29.213Z,45.40
2022-08-14T05:46:56.465Z,43.90
2022-08-14T05:49:33.446Z,41.10
2022-08-14T05:52:01.577Z,37.90
2022-08-14T05:54:30.711Z,35.10
2022-08-14T05:57:03.632Z,33.40
2022-08-14T05:59:36.664Z,31.30
2022-08-14T06:02:07.696Z,31.10
2022-08-14T06:04:36.896Z,28.00
2022-08-14T06:07:03.626Z,25.20
2022-08-14T06:09:36.099Z,23.70
2022-08-14T06:12:10.569Z,23.00
2022-08-14T06:14:38.856Z,21.60
2022-08-14T06:17:05.643Z,19.80
2022-08-14T06:19:32.224Z,16.90
2022-08-14T06:21:59.487Z,16.20
2022-08-14T06:24:26.993Z,12.90
2022-08-14T06:26:56.666Z,13.10
2022-08-14T06:29:23.815Z,10.90
2022-08-14T06:32:00.033Z,9.40
2022-08-14T06:35:03.751Z,6.30
2022-08-14T06:37:16.769Z,5.60
2022-08-14T06:39:44.265Z,4.90
2022-08-14T06:42:25.588Z,1.70
2022-08-14T06:44:58.362Z,1.00
2022-08-14T06:47:25.128Z,1.00
2022-08-14T06:49:57.692Z,1.00
2022-08-14T06:52:25.050Z,1.00
2022-08-14T06:54:51.697Z,1.00
2022-08-14T06:57:18.617Z,1.00
2022-08-14T06:59:48.470Z,1.00
2022-08-14T07:02:36.008Z,1.00
2022-08-14T07:05:23.366Z,1.00
2022-08-14T07:07:50.661Z,1.00
2022-08-14T07:10:17.639Z,1.00
2022-08-14T07:13:00.628Z,1.00
2022-08-14T07:15:32.454Z,1.00
2022-08-14T07:17:59.723Z,1.00
2022-08-14T07:20:30.840Z,1.00
2022-08-14T07:23:05.351Z,1.00
2022-08-14T07:25:37.641Z,1.00
2022-08-14T07:28:21.127Z,1.00
2022-08-14T07:30:50.779Z,1.00
2022-08-14T07:33:20.796Z,1.00
2022-08-14T07:35:58.439Z,1.00
2022-08-14T07:38:33.963Z,1.00
2022-08-14T07:41:06.884Z,1.00
2022-08-14T07:43:41.598Z,1.00
2022-08-14T07:46:08.316Z,1.00
2022-08-14T07:48:39.476Z,1.00
2022-08-14T07:51:10.985Z,1.00
2022-08-14T07:53:40.427Z,1.00
2022-08-14T07:56:21.409Z,1.00
2022-08-14T07:58:54.734Z,1.00
2022-08-14T08:01:26.203Z,1.00
2022-08-14T08:03:59.440Z,1.00
2022-08-14T08:06:26.774Z,1.00
2022-08-14T08:08:58.877Z,1.00
2022-08-14T08:11:34.785Z,1.00
2022-08-14T08:14:17.447Z,1.00
2022-08-14T08:16:51.142Z,1.00
2022-08-14T08:19:19.123Z,1.00
2022-08-14T08:21:46.933Z,1.00
2022-08-14T08:24:18.314Z,1.00
2022-08-14T08:26:46.717Z,1.00
2022-08-14T08:29:19.772Z,1.00
2022-08-14T08:31:52.706Z,1.00
2022-08-14T08:34:20.479Z,1.00
2022-08-14T08:36:50.476Z,1.00
2022-08-14T08:39:21.952Z,1.00
2022-08-14T08:41:53.287Z,1.00
2022-08-14T08:44:32.580Z,1.00
2022-08-14T08:47:05.935Z,1.00
2022-08-14T08:49:48.722Z,1.00
2022-08-14T08:52:30.846Z,1.00
2022-08-14T08:54:58.847Z,1.00
2022-08-14T08:57:25.522Z,1.00
2022-08-14T08:59:55.274Z,1.00
2022-08-14T09:02:25.986Z,1.00
2022-08-14T09:05:01.313Z,1.00
2022-08-14T09:07:28.034Z,1.00
2022-08-14T09:09:59.364Z,1.00
2022-08-14T09:12:31.563Z,1.00
2022-08-14T09:15:03.980Z,1.00
2022-08-14T09:17:38.409Z,1.00
2022-08-14T09:20:07.252Z,1.00
2022-08-14T09:22:48.203Z,1.00
2022-08-14T09:25:19.540Z,1.00
2022-08-14T09:27:46.688Z,1.00
2022-08-14T09:30:31.161Z,1.00
2022-08-14T09:33:09.044Z,1.00
2022-08-14T09:35:57.504Z,1.00
2022-08-14T09:38:33.412Z,1.00
2022-08-14T09:41:13.273Z,1.00
2022-08-14T09:43:42.832Z,1.00
2022-08-14T09:46:09.552Z,1.00
2022-08-14T09:48:38.435Z,1.00
2022-08-14T09:54:18.100Z,1.00
2022-08-14T09:56:30.893Z,1.00
2022-08-14T09:58:59.313Z,1.00
2022-08-14T10:01:35.752Z,1.00
2022-08-14T10:04:06.243Z,1.00
2022-08-14T10:06:45.418Z,1.00
2022-08-14T10:09:16.801Z,1.00
2022-08-14T10:11:59.110Z,1.00
2022-08-14T10:14:35.890Z,1.00
2022-08-14T10:17:06.549Z,1.00
2022-08-14T10:19:35.896Z,1.00
2022-08-14T10:23:14.343Z,1.00
2022-08-14T10:24:54.754Z,1.00
2022-08-14T10:27:26.742Z,1.00
2022-08-14T10:29:55.589Z,1.00
2022-08-14T10:32:36.356Z,1.00
2022-08-14T10:35:13.321Z,1.00
2022-08-14T10:37:52.413Z,1.00
2022-08-14T10:40:37.059Z,1.00
2022-08-14T10:43:23.283Z,1.00
2022-08-14T10:46:03.867Z,1.00
2022-08-14T10:48:45.973Z,1.00
2022-08-14T10:51:15.059Z,1.00
2022-08-14T10:53:41.687Z,1.00
2022-08-14T10:56:21.600Z,1.00
2022-08-14T10:59:02.909Z,1.00
2022-08-14T11:01:30.602Z,1.00
2022-08-14T11:03:59.281Z,1.00
2022-08-14T11:06:27.143Z,1.00
2022-08-14T11:08:55.119Z,1.00
2022-08-14T11:11:22.969Z,1.00
2022-08-14T11:13:50.908Z,1.00
2022-08-14T11:16:18.255Z,1.00
2022-08-14T11:18:50.889Z,1.00
2022-08-14T11:21:19.892Z,1.00
2022-08-14T11:23:49.316Z,1.00
2022-08-14T11:26:20.311Z,1.00
2022-08-14T11:28:49.708Z,1.00
2022-08-14T11:31:21.931Z,1.00
2022-08-14T11:33:50.083Z,1.00
2022-08-14T11:36:18.115Z,1.00
2022-08-14T11:38:46.000Z,1.00
2022-08-14T11:41:14.289Z,1.00
2022-08-14T11:43:55.840Z,1.00
2022-08-14T11:46:29.627Z,1.00
2022-08-14T11:49:05.503Z,1.00
2022-08-14T11:51:35.957Z,1.00
2022-08-14T11:54:09.660Z,1.00
2022-08-14T11:56:41.087Z,1.00
2022-08-14T11:59:10.317Z,1.00
2022-08-14T12:01:41.357Z,1.00
2022-08-14T12:04:09.181Z,1.00
2022-08-14T12:06:56.288Z,1.00
2022-08-14T12:09:32.974Z,1.00
2022-08-14T12:12:00.125Z,1.00
2022-08-14T12:14:29.722Z,1.00
2022-08-14T12:16:58.924Z,1.00
2022-08-14T12:19:26.238Z,1.00
2022-08-14T12:21:53.753Z,1.00
2022-08-14T12:24:35.996Z,1.00
2022-08-14T12:27:03.770Z,1.00
2022-08-14T12:29:31.831Z,1.00
2022-08-14T12:32:00.159Z,1.00
2022-08-14T12:34:31.334Z,1.00
2022-08-14T12:37:03.242Z,1.00
2022-08-14T12:39:29.858Z,1.00
2022-08-14T12:42:07.680Z,1.00
2022-08-14T12:44:38.565Z,1.00
2022-08-14T12:47:07.794Z,1.00
2022-08-14T12:49:34.569Z,1.00
2022-08-14T12:52:17.159Z,1.00
2022-08-14T12:54:57.577Z,1.00
2022-08-14T12:57:39.404Z,1.00
2022-08-14T13:00:23.708Z,1.00
2022-08-14T13:02:54.844Z,1.00
2022-08-14T13:05:27.492Z,1.00
2022-08-14T13:07:54.960Z,1.00
2022-08-14T13:10:47.518Z,1.00
2022-08-14T13:13:15.756Z,1.00
2022-08-14T13:15:47.978Z,1.00
2022-08-14T13:18:23.968Z,1.00
2022-08-14T13:20:57.865Z,1.00
2022-08-14T13:23:31.553Z,1.00
2022-08-14T13:25:59.417Z,1.00
2022-08-14T13:28:33.583Z,1.00
2022-08-14T13:31:01.090Z,1.00
2022-08-14T13:33:29.107Z,1.00
2022-08-14T13:35:56.480Z,1.00
2022-08-14T13:38:23.130Z,1.00
2022-08-14T13:40:54.312Z,1.00
2022-08-14T13:43:22.574Z,1.00
2022-08-14T13:46:00.643Z,1.00
2022-08-14T13:48:33.277Z,1.00
2022-08-14T13:51:05.720Z,1.00
2022-08-14T13:53:56.667Z,1.00
2022-08-14T13:56:36.562Z,1.00
2022-08-14T13:59:04.849Z,1.00
2022-08-14T14:01:42.668Z,1.00
2022-08-14T14:04:19.357Z,1.00
2022-08-14T14:06:51.352Z,1.00
2022-08-14T14:09:21.390Z,1.00
2022-08-14T14:11:47.965Z,1.00
2022-08-14T14:14:45.000Z,1.00
2022-08-14T14:17:08.836Z,1.00
2022-08-14T14:19:37.525Z,1.00
2022-08-14T14:22:06.295Z,1.00
2022-08-14T14:24:36.727Z,1.00
2022-08-14T14:27:38.985Z,1.00
2022-08-14T14:29:55.454Z,1.00
2022-08-14T14:32:29.341Z,1.00
2022-08-14T14:35:02.531Z,1.00
2022-08-14T14:37:30.030Z,1.00
2022-08-14T14:40:52.819Z,1.00
2022-08-14T14:42:48.899Z,1.00
2022-08-14T14:45:21.963Z,1.00
2022-08-14T14:47:51.526Z,1.00
2022-08-14T14:50:26.437Z,1.00
2022-08-14T14:53:00.779Z,1.00
2022-08-14T14:55:54.348Z,1.00
2022-08-14T14:58:30.428Z,1.00
2022-08-14T15:01:01.864Z,1.00
2022-08-14T15:03:29.698Z,1.00
2022-08-14T15:05:57.409Z,1.00
2022-08-14T15:08:26.687Z,1.00
2022-08-14T15:11:13.431Z,1.00
2022-08-14T15:13:43.085Z,1.00
2022-08-14T15:16:10.093Z,1.00
2022-08-14T15:18:40.071Z,1.00
2022-08-14T15:21:13.571Z,1.00
2022-08-14T15:23:44.733Z,1.00
2022-08-14T15:26:23.719Z,1.00
2022-08-14T15:29:02.709Z,1.00
2022-08-14T15:31:30.079Z,1.00
2022-08-14T15:34:43.497Z,1.00
2022-08-14T15:36:58.942Z,1.00
2022-08-14T15:39:29.280Z,1.00
2022-08-14T15:42:04.232Z,1.00
2022-08-14T15:44:56.585Z,1.00
2022-08-14T15:47:27.746Z,1.00
2022-08-14T15:49:56.291Z,1.00
2022-08-14T15:52:33.165Z,1.00
2022-08-14T15:55:07.189Z,1.00
2022-08-14T15:57:34.578Z,1.00
2022-08-14T16:00:37.838Z,1.00
2022-08-14T16:03:09.706Z,1.00
2022-08-14T16:05:38.175Z,1.00
2022-08-14T16:08:28.833Z,1.00
2022-08-14T16:10:55.153Z,1.00
2022-08-14T16:13:39.285Z,1.00
2022-08-14T16:16:34.848Z,1.00
2022-08-14T16:18:59.010Z,1.00
2022-08-14T16:21:31.758Z,1.00
2022-08-14T16:23:59.601Z,1.00
2022-08-14T16:26:29.240Z,1.00
2022-08-14T16:29:07.364Z,1.00
2022-08-14T16:31:36.584Z,1.00
2022-08-14T16:34:45.742Z,1.00
2022-08-14T16:36:51.286Z,1.00
2022-08-14T16:39:18.069Z,1.00
2022-08-14T16:41:45.631Z,1.00
2022-08-14T16:44:23.228Z,1.00
2022-08-14T16:47:01.220Z,1.00
2022-08-14T16:50:03.472Z,1.00
2022-08-14T16:52:25.912Z,1.00
2022-08-14T16:55:04.418Z,1.00
2022-08-14T16:57:31.706Z,1.00
2022-08-14T16:59:59.567Z,1.00
2022-08-14T17:02:37.005Z,1.00
2022-08-14T17:05:26.836Z,1.00
2022-08-14T17:08:28.569Z,1.00
2022-08-14T17:10:51.556Z,1.00
2022-08-14T17:13:47.495Z,1.00
2022-08-14T17:16:24.755Z,1.00
2022-08-14T17:19:00.535Z,1.00
2022-08-14T17:21:31.226Z,1.00
2022-08-14T17:24:57.382Z,1.00
2022-08-14T17:26:55.032Z,1.00
2022-08-14T17:29:22.295Z,1.00
2022-08-14T17:31:57.813Z,1.00
2022-08-14T17:34:26.034Z,1.00
2022-08-14T17:36:57.130Z,1.00
2022-08-14T17:39:28.359Z,1.00
2022-08-14T17:42:13.134Z,1.00
2022-08-14T17:44:45.542Z,1.00
2022-08-14T17:47:14.539Z,1.00
2022-08-14T17:49:46.244Z,1.00
2022-08-14T17:52:18.417Z,1.00
2022-08-14T17:54:52.720Z,1.00
2022-08-14T17:57:29.480Z,1.00
2022-08-14T18:00:03.103Z,1.00
2022-08-14T18:02:31.036Z,1.00
2022-08-14T18:05:03.135Z,1.00
2022-08-14T18:08:00.120Z,1.00
2022-08-14T18:10:52.080Z,1.00
2022-08-14T18:13:07.932Z,1.00
2022-08-14T18:15:39.127Z,1.00
2022-08-14T18:18:09.091Z,1.00
2022-08-14T18:21:40.467Z,1.00
2022-08-14T18:23:26.726Z,1.00
2022-08-14T18:25:56.580Z,1.00
2022-08-14T18:28:48.490Z,1.00
2022-08-14T18:31:20.831Z,1.00
2022-08-14T18:33:57.668Z,1.00
2022-08-14T18:36:48.659Z,1.00
2022-08-14T18:39:26.893Z,1.00
2022-08-14T18:42:23.386Z,1.00
2022-08-14T18:44:52.785Z,1.00
2022-08-14T18:47:20.603Z,1.00
2022-08-14T18:49:53.076Z,1.00
2022-08-14T18:52:29.629Z,1.00
2022-08-14T18:54:59.638Z,1.00
2022-08-14T18:57:27.160Z,1.00
2022-08-14T19:00:25.754Z,1.00
2022-08-14T19:03:00.102Z,1.00
2022-08-14T19:05:47.467Z,1.00
2022-08-14T19:08:18.041Z,1.00
2022-08-14T19:10:55.596Z,1.00
2022-08-14T19:13:44.791Z,1.00
2022-08-14T19:16:23.432Z,1.00
2022-08-14T19:18:54.410Z,1.00
2022-08-14T19:21:34.423Z,1.00
2022-08-14T19:24:30.505Z,1.00
2022-08-14T19:27:16.733Z,1.00
2022-08-14T19:29:47.858Z,1.00
2022-08-14T19:32:36.711Z,1.00
2022-08-14T19:35:17.962Z,1.00
2022-08-14T19:37:55.409Z,1.00
2022-08-14T19:40:33.923Z,1.00
2022-08-14T19:43:01.842Z,1.00
2022-08-14T19:45:30.214Z,1.00
2022-08-14T19:48:00.746Z,1.00
2022-08-14T19:50:40.311Z,1.00
2022-08-14T19:53:16.410Z,1.00
2022-08-14T19:55:47.188Z,1.00
2022-08-14T19:58:15.251Z,1.00
2022-08-14T20:00:52.426Z,1.00
2022-08-14T20:03:23.240Z,1.00
2022-08-14T20:06:00.363Z,1.00
2022-08-14T20:10:59.185Z,1.00
2022-08-14T20:11:58.612Z,1.00
2022-08-14T20:14:20.496Z,1.00
2022-08-14T20:16:54.622Z,1.00
2022-08-14T20:19:23.670Z,1.00
2022-08-14T20:21:58.340Z,1.00
2022-08-14T20:24:40.565Z,1.00
2022-08-14T20:27:24.865Z,1.00
2022-08-14T20:30:34.890Z,1.00
2022-08-14T20:33:08.076Z,1.00
2022-08-14T20:35:44.376Z,1.00
2022-08-14T20:38:31.132Z,1.00
2022-08-14T20:40:59.939Z,1.00
2022-08-14T20:43:46.437Z,1.00
2022-08-14T20:46:18.022Z,1.00
2022-08-14T20:49:00.647Z,1.00
2022-08-14T20:51:43.643Z,1.00
2022-08-14T20:54:34.519Z,1.00
2022-08-14T20:57:11.366Z,1.00
2022-08-14T20:59:39.960Z,1.00
2022-08-14T21:02:50.206Z,1.00
2022-08-14T21:05:21.207Z,1.00
2022-08-14T21:07:50.248Z,1.00
2022-08-14T21:10:36.161Z,1.00
2022-08-14T21:13:25.984Z,1.00
2022-08-14T21:15:58.053Z,1.00
2022-08-14T21:18:35.348Z,1.00
2022-08-14T21:21:19.027Z,1.00
2022-08-14T21:23:54.657Z,1.00
2022-08-14T21:26:52.041Z,1.00
2022-08-14T21:29:11.422Z,1.00
2022-08-14T21:31:38.454Z,1.00
2022-08-14T21:34:31.571Z,1.00
2022-08-14T21:36:54.394Z,1.00
2022-08-14T21:39:22.170Z,1.00
2022-08-14T21:41:58.954Z,1.00
2022-08-14T21:44:43.117Z,1.00
2022-08-14T21:47:12.018Z,1.00
2022-08-14T21:49:40.183Z,1.00
2022-08-14T21:52:52.011Z,1.00
2022-08-14T21:54:59.558Z,1.00
2022-08-14T21:58:03.803Z,1.00
2022-08-14T22:00:34.725Z,1.00
2022-08-14T22:03:02.052Z,1.00
2022-08-14T22:05:29.615Z,1.00
2022-08-14T22:07:56.897Z,1.00
2022-08-14T22:10:24.337Z,1.00
2022-08-14T22:13:00.376Z,1.00
2022-08-14T22:15:28.668Z,2.80
2022-08-14T22:17:56.996Z,3.20
2022-08-14T22:20:28.609Z,5.00
2022-08-14T22:22:56.643Z,5.00
2022-08-14T22:25:33.770Z,5.40
2022-08-14T22:28:03.166Z,4.90
2022-08-14T22:30:30.106Z,3.90
2022-08-14T22:33:00.099Z,4.30
2022-08-14T22:35:27.853Z,4.80
2022-08-14T22:38:34.935Z,4.30
2022-08-14T22:41:02.816Z,2.70
2022-08-14T22:43:31.548Z,3.20
2022-08-14T22:46:02.443Z,3.30
2022-08-14T22:48:29.725Z,2.80
2022-08-14T22:50:56.377Z,3.50
2022-08-14T22:53:24.011Z,4.80
2022-08-14T22:55:56.682Z,3.10
2022-08-14T22:58:30.382Z,4.00
2022-08-14T23:01:00.122Z,4.70
2022-08-14T23:03:27.172Z,3.60
2022-08-14T23:05:55.817Z,3.50
2022-08-14T23:08:56.254Z,4.40
2022-08-14T23:11:10.311Z,4.50
2022-08-14T23:13:38.960Z,4.50
2022-08-14T23:16:06.762Z,4.50
2022-08-14T23:18:34.545Z,4.40
2022-08-14T23:21:01.598Z,4.40
2022-08-14T23:23:28.373Z,5.10
2022-08-14T23:25:58.822Z,7.00
2022-08-14T23:28:32.759Z,9.40
2022-08-14T23:31:01.190Z,9.40
2022-08-14T23:33:28.093Z,9.40
2022-08-14T23:35:59.261Z,9.30
2022-08-14T23:38:30.571Z,8.60
2022-08-14T23:41:00.782Z,7.50
2022-08-14T23:43:31.055Z,7.90
2022-08-14T23:45:58.704Z,9.30
2022-08-14T23:48:28.202Z,9.80
2022-08-14T23:50:55.769Z,9.20
2022-08-14T23:53:28.634Z,9.10
2022-08-14T23:56:13.075Z,9.10
2022-08-14T23:58:39.909Z,8.90
